createdAt,value
2023-03-30T00:02:24.819Z,101189.16
2023-03-30T00:04:54.234Z,101185.44
2023-03-30T00:07:22.118Z,101088.00
2023-03-30T00:09:50.547Z,101189.19
2023-03-30T00:12:20.721Z,101188.00
2023-03-30T00:14:49.017Z,101142.63
2023-03-30T00:17:17.731Z,101035.47
2023-03-30T00:19:46.026Z,101182.88
2023-03-30T00:22:15.486Z,101182.72
2023-03-30T00:24:43.690Z,101031.84
2023-03-30T00:27:11.735Z,101117.25
2023-03-30T00:29:39.632Z,101190.22
2023-03-30T00:32:07.973Z,101185.72
2023-03-30T00:34:36.565Z,101184.69
2023-03-30T00:37:07.095Z,101187.97
2023-03-30T00:39:36.807Z,101186.31
2023-03-30T00:42:05.422Z,101184.53
2023-03-30T00:45:11.277Z,101145.19
2023-03-30T00:47:46.431Z,101184.97
2023-03-30T00:50:15.426Z,101168.72
2023-03-30T00:52:46.696Z,101151.44
2023-03-30T00:55:19.870Z,101179.09
2023-03-30T00:57:51.304Z,101119.91
2023-03-30T01:00:20.517Z,101089.72
2023-03-30T01:02:56.919Z,101170.53
2023-03-30T01:05:25.937Z,101175.63
2023-03-30T01:07:54.186Z,101172.34
2023-03-30T01:10:25.676Z,101183.28
2023-03-30T01:12:55.527Z,101139.59
2023-03-30T01:15:25.438Z,100954.97
2023-03-30T01:18:13.540Z,101177.28
2023-03-30T01:21:04.440Z,101171.88
2023-03-30T01:24:09.959Z,101182.97
2023-03-30T01:26:55.517Z,101182.81
2023-03-30T01:30:03.471Z,101164.31
2023-03-30T01:33:11.302Z,101130.09
2023-03-30T01:35:59.845Z,101097.19
2023-03-30T01:39:10.556Z,101152.16
2023-03-30T01:41:48.374Z,101104.97
2023-03-30T01:44:25.362Z,101176.78
2023-03-30T01:46:59.972Z,100994.84
2023-03-30T01:49:33.132Z,100998.44
2023-03-30T01:52:07.755Z,101117.63
2023-03-30T01:54:40.565Z,101164.81
2023-03-30T01:57:16.590Z,101163.31
2023-03-30T01:59:50.790Z,101167.50
2023-03-30T02:02:22.290Z,101125.16
2023-03-30T02:04:55.681Z,101170.53
2023-03-30T02:07:28.396Z,101169.19
2023-03-30T02:10:02.489Z,101173.84
2023-03-30T02:12:33.747Z,101170.53
2023-03-30T02:15:04.812Z,101073.53
2023-03-30T02:17:33.978Z,101168.44
2023-03-30T02:20:02.296Z,101124.59
2023-03-30T02:22:32.644Z,101176.09
2023-03-30T02:25:01.411Z,101148.31
2023-03-30T02:27:32.059Z,101176.72
2023-03-30T02:30:00.217Z,100882.91
2023-03-30T02:32:33.497Z,101160.50
2023-03-30T02:35:24.963Z,101165.59
2023-03-30T02:38:17.353Z,101163.66
2023-03-30T02:40:56.306Z,101165.31
2023-03-30T02:43:40.716Z,101160.06
2023-03-30T02:46:25.272Z,101165.16
2023-03-30T02:49:02.761Z,101166.06
2023-03-30T02:51:42.523Z,101164.69
2023-03-30T02:54:24.514Z,101159.28
2023-03-30T02:57:03.688Z,101159.44
2023-03-30T02:59:38.825Z,101162.59
2023-03-30T03:02:15.393Z,101131.06
2023-03-30T03:04:46.446Z,101162.28
2023-03-30T03:07:15.523Z,101171.75
2023-03-30T03:09:44.788Z,101100.28
2023-03-30T03:12:12.827Z,101149.22
2023-03-30T03:14:43.236Z,101147.41
2023-03-30T03:17:14.103Z,101145.63
2023-03-30T03:19:42.686Z,101141.88
2023-03-30T03:22:11.276Z,101146.38
2023-03-30T03:24:40.818Z,101140.53
2023-03-30T03:27:09.004Z,101132.41
2023-03-30T03:29:40.809Z,101104.34
2023-03-30T03:32:10.176Z,100994.78
2023-03-30T03:34:39.820Z,101081.06
2023-03-30T03:37:07.658Z,101129.25
2023-03-30T03:39:37.798Z,100924.56
2023-03-30T03:42:06.532Z,101128.22
2023-03-30T03:44:34.688Z,101044.88
2023-03-30T03:47:03.233Z,101089.03
2023-03-30T03:49:32.509Z,101123.88
2023-03-30T03:52:00.606Z,101125.81
2023-03-30T03:54:29.041Z,101125.22
2023-03-30T03:56:57.509Z,101003.06
2023-03-30T03:59:25.838Z,100788.88
2023-03-30T04:01:54.115Z,101115.47
2023-03-30T04:04:22.213Z,101116.97
2023-03-30T04:06:54.081Z,101112.16
2023-03-30T04:09:23.498Z,100860.66
2023-03-30T04:11:51.781Z,101054.22
2023-03-30T04:14:19.825Z,101089.50
2023-03-30T04:16:49.354Z,101118.91
2023-03-30T04:19:17.818Z,101093.69
2023-03-30T04:21:47.100Z,101115.00
2023-03-30T04:24:18.490Z,101069.09
2023-03-30T04:26:49.035Z,101048.09
2023-03-30T04:29:17.947Z,101011.91
2023-03-30T04:31:51.294Z,101092.06
2023-03-30T04:34:22.054Z,101112.75
2023-03-30T04:36:50.110Z,101119.97
2023-03-30T04:39:21.083Z,101125.81
2023-03-30T04:41:50.800Z,101121.47
2023-03-30T04:44:20.576Z,101031.13
2023-03-30T04:46:49.187Z,101113.22
2023-03-30T04:49:17.328Z,101110.97
2023-03-30T04:51:46.555Z,101051.97
2023-03-30T04:54:16.354Z,101110.22
2023-03-30T04:56:46.135Z,101125.22
2023-03-30T04:59:16.629Z,101105.69
2023-03-30T05:01:45.577Z,100990.31
2023-03-30T05:04:17.598Z,101081.66
2023-03-30T05:06:45.840Z,101110.28
2023-03-30T05:09:14.852Z,100991.06
2023-03-30T05:11:43.240Z,101109.19
2023-03-30T05:14:13.029Z,101054.88
2023-03-30T05:16:41.629Z,101107.50
2023-03-30T05:19:09.874Z,101102.97
2023-03-30T05:21:37.810Z,101095.88
2023-03-30T05:24:06.674Z,101088.94
2023-03-30T05:26:35.105Z,101028.03
2023-03-30T05:29:03.168Z,101015.25
2023-03-30T05:31:32.831Z,101088.38
2023-03-30T05:34:00.988Z,101090.63
2023-03-30T05:36:28.849Z,101091.47
2023-03-30T05:38:58.426Z,101092.47
2023-03-30T05:41:28.129Z,100993.38
2023-03-30T05:43:56.167Z,101088.28
2023-03-30T05:46:24.715Z,101085.31
2023-03-30T05:48:54.598Z,101085.53
2023-03-30T05:51:22.547Z,101088.44
2023-03-30T05:53:50.469Z,100955.47
2023-03-30T05:56:18.376Z,100964.53
2023-03-30T05:58:46.434Z,101082.19
2023-03-30T06:01:19.249Z,101077.91
2023-03-30T06:03:47.838Z,101071.09
2023-03-30T06:06:19.235Z,101060.06
2023-03-30T06:08:47.319Z,101071.09
2023-03-30T06:11:17.563Z,100983.72
2023-03-30T06:13:45.590Z,100940.88
2023-03-30T06:16:13.534Z,100969.66
2023-03-30T06:18:43.241Z,101064.41
2023-03-30T06:21:11.920Z,101061.34
2023-03-30T06:23:42.690Z,101030.56
2023-03-30T06:26:11.532Z,101060.63
2023-03-30T06:28:39.531Z,101061.41
2023-03-30T06:31:12.025Z,101058.13
2023-03-30T06:33:41.892Z,101058.16
2023-03-30T06:36:13.442Z,101060.59
2023-03-30T06:38:43.803Z,101050.34
2023-03-30T06:41:12.877Z,101035.09
2023-03-30T06:43:41.230Z,101056.16
2023-03-30T06:46:11.437Z,101062.44
2023-03-30T06:48:42.065Z,101063.28
2023-03-30T06:51:10.507Z,101056.34
2023-03-30T06:53:39.869Z,101064.16
2023-03-30T06:56:10.624Z,101068.91
2023-03-30T06:58:39.046Z,100911.72
2023-03-30T07:01:11.639Z,101061.69
2023-03-30T07:03:41.264Z,101015.75
2023-03-30T07:06:10.567Z,101044.94
2023-03-30T07:08:38.895Z,101023.78
2023-03-30T07:11:09.399Z,101061.69
2023-03-30T07:13:37.939Z,101061.63
2023-03-30T07:16:08.097Z,101009.28
2023-03-30T07:18:36.248Z,100986.41
2023-03-30T07:21:04.823Z,100853.84
2023-03-30T07:23:33.494Z,101038.19
2023-03-30T07:26:01.590Z,101054.06
2023-03-30T07:28:30.883Z,101047.38
2023-03-30T07:31:07.147Z,101005.94
2023-03-30T07:33:38.233Z,101023.34
2023-03-30T07:36:07.457Z,101033.22
2023-03-30T07:38:35.378Z,101038.41
2023-03-30T07:41:08.481Z,101041.38
2023-03-30T07:43:38.109Z,101032.28
2023-03-30T07:46:06.465Z,101037.97
2023-03-30T07:48:34.863Z,101040.94
2023-03-30T07:51:04.868Z,101039.06
2023-03-30T07:53:33.261Z,101038.75
2023-03-30T07:56:01.976Z,100987.38
2023-03-30T07:58:30.581Z,101031.59
2023-03-30T08:01:03.446Z,100946.88
2023-03-30T08:03:33.395Z,101010.75
2023-03-30T08:06:17.051Z,101019.94
2023-03-30T08:08:44.984Z,101017.88
2023-03-30T08:11:15.953Z,101024.94
2023-03-30T08:13:44.566Z,100958.63
2023-03-30T08:16:13.966Z,101024.25
2023-03-30T08:18:42.678Z,101021.28
2023-03-30T08:21:11.497Z,101023.50
2023-03-30T08:23:39.596Z,101020.91
2023-03-30T08:26:07.957Z,101017.91
2023-03-30T08:28:36.767Z,101019.06
2023-03-30T08:31:06.614Z,101022.75
2023-03-30T08:33:38.229Z,101023.31
2023-03-30T08:36:06.764Z,101015.38
2023-03-30T08:38:34.693Z,101007.44
2023-03-30T08:41:03.311Z,100965.41
2023-03-30T08:43:49.013Z,100953.09
2023-03-30T08:46:19.723Z,101012.72
2023-03-30T08:48:50.635Z,101012.00
2023-03-30T08:51:24.912Z,100960.69
2023-03-30T08:53:57.569Z,101011.66
2023-03-30T08:56:32.087Z,100981.78
2023-03-30T08:59:10.449Z,100830.72
2023-03-30T09:01:47.514Z,100995.38
2023-03-30T09:04:28.471Z,101006.19
2023-03-30T09:07:03.593Z,100999.31
2023-03-30T09:09:33.761Z,100927.97
2023-03-30T09:12:08.993Z,100988.72
2023-03-30T09:14:41.841Z,100987.16
2023-03-30T09:17:17.350Z,100982.03
2023-03-30T09:19:57.140Z,100991.63
2023-03-30T09:22:33.509Z,100990.22
2023-03-30T09:25:03.903Z,100929.03
2023-03-30T09:27:43.552Z,100904.75
2023-03-30T09:30:20.399Z,100974.25
2023-03-30T09:32:59.724Z,100909.75
2023-03-30T09:35:36.463Z,100976.38
2023-03-30T09:38:05.863Z,100971.72
2023-03-30T09:41:13.429Z,100958.31
2023-03-30T09:43:44.458Z,100966.53
2023-03-30T09:46:20.195Z,100959.53
2023-03-30T09:48:52.019Z,100959.50
2023-03-30T09:51:24.124Z,100875.16
2023-03-30T09:53:55.468Z,100950.44
2023-03-30T09:56:29.382Z,100950.59
2023-03-30T09:58:57.399Z,100870.50
2023-03-30T10:01:38.338Z,100933.63
2023-03-30T10:04:09.763Z,100932.19
2023-03-30T10:06:48.006Z,100952.19
2023-03-30T10:09:16.707Z,100950.06
2023-03-30T10:11:47.076Z,100957.44
2023-03-30T10:14:29.017Z,100951.59
2023-03-30T10:16:58.691Z,100931.88
2023-03-30T10:19:26.762Z,100942.25
2023-03-30T10:21:58.948Z,100925.13
2023-03-30T10:24:31.657Z,100924.72
2023-03-30T10:27:05.851Z,100920.19
2023-03-30T10:29:34.016Z,100900.94
2023-03-30T10:32:09.748Z,100927.66
2023-03-30T10:34:40.526Z,100919.97
2023-03-30T10:37:13.434Z,100821.53
2023-03-30T10:39:45.385Z,100914.09
2023-03-30T10:42:19.186Z,100908.91
2023-03-30T10:44:51.408Z,100916.06
2023-03-30T10:47:42.515Z,100927.34
2023-03-30T10:50:19.842Z,100924.97
2023-03-30T10:52:59.766Z,100902.53
2023-03-30T10:55:35.678Z,100914.53
2023-03-30T10:58:14.490Z,100922.69
2023-03-30T11:00:58.432Z,100919.84
2023-03-30T11:03:29.470Z,100923.31
2023-03-30T11:06:03.513Z,100862.41
2023-03-30T11:08:38.384Z,100926.09
2023-03-30T11:11:08.248Z,100925.22
2023-03-30T11:13:41.657Z,100924.19
2023-03-30T11:16:16.219Z,100919.13
2023-03-30T11:18:51.397Z,100920.44
2023-03-30T11:21:22.786Z,100849.22
2023-03-30T11:23:55.238Z,100855.53
2023-03-30T11:26:29.957Z,100914.38
2023-03-30T11:29:08.113Z,100913.28
2023-03-30T11:31:50.248Z,100909.25
2023-03-30T11:34:28.402Z,100902.53
2023-03-30T11:37:05.269Z,100905.56
2023-03-30T11:39:38.388Z,100910.59
2023-03-30T11:42:15.841Z,100918.47
2023-03-30T11:44:44.570Z,100775.09
2023-03-30T11:47:47.441Z,100911.44
2023-03-30T11:50:30.148Z,100912.00
2023-03-30T11:53:12.785Z,100905.81
2023-03-30T11:55:56.138Z,100912.00
2023-03-30T11:58:33.382Z,100906.72
2023-03-30T12:01:15.223Z,100911.00
2023-03-30T12:03:45.325Z,100909.75
2023-03-30T12:06:30.006Z,100918.41
2023-03-30T12:09:28.968Z,100901.91
2023-03-30T12:12:10.533Z,100883.66
2023-03-30T12:14:55.065Z,100872.78
2023-03-30T12:17:34.392Z,100888.31
2023-03-30T12:20:11.356Z,100863.31
2023-03-30T12:22:45.149Z,100902.34
2023-03-30T12:25:27.709Z,100895.19
2023-03-30T12:28:05.380Z,100889.13
2023-03-30T12:30:44.947Z,100857.22
2023-03-30T12:33:14.897Z,100882.25
2023-03-30T12:35:58.776Z,100878.75
2023-03-30T12:38:30.124Z,100845.63
2023-03-30T12:41:14.301Z,100868.38
2023-03-30T12:44:03.500Z,100821.00
2023-03-30T12:46:38.167Z,100886.50
2023-03-30T12:49:16.546Z,100878.47
2023-03-30T12:52:04.196Z,100842.59
2023-03-30T12:54:54.527Z,100811.31
2023-03-30T12:57:37.567Z,100859.91
2023-03-30T13:00:33.031Z,100854.91
2023-03-30T13:03:23.517Z,100854.28
2023-03-30T13:05:54.685Z,100853.28
2023-03-30T13:08:31.607Z,100857.56
2023-03-30T13:11:13.296Z,100736.34
2023-03-30T13:13:51.359Z,100839.00
2023-03-30T13:17:07.351Z,100839.91
2023-03-30T13:20:15.441Z,100815.19
2023-03-30T13:23:16.658Z,100852.75
2023-03-30T13:25:49.862Z,100821.34
2023-03-30T13:28:45.462Z,100829.97
2023-03-30T13:31:25.745Z,100719.22
2023-03-30T13:34:03.663Z,100812.28
2023-03-30T13:36:36.830Z,100671.72
2023-03-30T13:39:13.930Z,100805.03
2023-03-30T13:41:53.913Z,100540.28
2023-03-30T13:44:39.306Z,100740.09
2023-03-30T13:47:22.911Z,100806.97
2023-03-30T13:50:03.137Z,100802.50
2023-03-30T13:52:38.266Z,100686.94
2023-03-30T13:55:16.181Z,100444.16
2023-03-30T13:57:45.298Z,100705.25
2023-03-30T14:00:33.606Z,100790.19
2023-03-30T14:03:16.714Z,100782.16
2023-03-30T14:05:46.045Z,100743.47
2023-03-30T14:08:14.173Z,100695.53
2023-03-30T14:10:43.093Z,100771.72
2023-03-30T14:13:14.733Z,100679.28
2023-03-30T14:15:46.590Z,100765.84
2023-03-30T14:18:24.427Z,100774.56
2023-03-30T14:20:57.864Z,100777.25
2023-03-30T14:23:33.760Z,100775.38
2023-03-30T14:26:04.521Z,100768.22
2023-03-30T14:28:38.012Z,100776.69
2023-03-30T14:31:13.766Z,100771.22
2023-03-30T14:33:42.294Z,100767.47
2023-03-30T14:36:13.116Z,100763.88
2023-03-30T14:38:43.581Z,100741.28
2023-03-30T14:41:16.568Z,100752.97
2023-03-30T14:43:51.508Z,100681.16
2023-03-30T14:46:19.679Z,100752.19
2023-03-30T14:48:50.670Z,100743.28
2023-03-30T14:51:29.925Z,100585.03
2023-03-30T14:54:00.550Z,100742.19
2023-03-30T14:56:29.806Z,100737.91
2023-03-30T14:58:58.612Z,100737.81
2023-03-30T15:01:32.361Z,100733.25
2023-03-30T15:04:03.365Z,100733.84
2023-03-30T15:06:33.703Z,100658.16
2023-03-30T15:09:03.266Z,100599.03
2023-03-30T15:11:34.555Z,100660.53
2023-03-30T15:14:06.110Z,100730.00
2023-03-30T15:16:35.974Z,100725.03
2023-03-30T15:19:07.804Z,100652.00
2023-03-30T15:21:38.753Z,100722.03
2023-03-30T15:24:08.884Z,100719.88
2023-03-30T15:26:44.592Z,100728.69
2023-03-30T15:29:13.848Z,100723.72
2023-03-30T15:31:44.665Z,100722.25
2023-03-30T15:34:16.935Z,100704.56
2023-03-30T15:36:53.437Z,100720.06
2023-03-30T15:39:25.877Z,100716.66
2023-03-30T15:42:01.652Z,100682.75
2023-03-30T15:44:30.067Z,100706.84
2023-03-30T15:47:01.373Z,100703.38
2023-03-30T15:49:40.839Z,100653.38
2023-03-30T15:52:14.864Z,100704.16
2023-03-30T15:54:47.619Z,100666.75
2023-03-30T15:57:21.450Z,100662.50
2023-03-30T15:59:52.194Z,100695.34
2023-03-30T16:02:22.743Z,100603.38
2023-03-30T16:04:51.670Z,100698.41
2023-03-30T16:07:24.770Z,100688.00
2023-03-30T16:09:53.457Z,100685.13
2023-03-30T16:12:26.718Z,100661.72
2023-03-30T16:14:55.431Z,100676.88
2023-03-30T16:17:23.500Z,100676.59
2023-03-30T16:19:51.323Z,100664.50
2023-03-30T16:22:20.784Z,100638.19
2023-03-30T16:24:48.644Z,100666.69
2023-03-30T16:27:16.706Z,100540.72
2023-03-30T16:29:44.552Z,100681.97
2023-03-30T16:32:12.368Z,100675.81
2023-03-30T16:34:43.080Z,100678.09
2023-03-30T16:37:11.497Z,100676.41
2023-03-30T16:39:40.679Z,100668.56
2023-03-30T16:42:08.620Z,100672.03
2023-03-30T16:44:36.858Z,100646.25
2023-03-30T16:47:05.022Z,100665.88
2023-03-30T16:49:33.031Z,100670.03
2023-03-30T16:52:02.071Z,100643.56
2023-03-30T16:54:32.431Z,100642.38
2023-03-30T16:57:02.597Z,100667.25
2023-03-30T16:59:32.416Z,100520.50
2023-03-30T17:02:00.731Z,100661.31
2023-03-30T17:04:28.652Z,100647.22
2023-03-30T17:06:56.704Z,100673.13
2023-03-30T17:09:24.657Z,100650.59
2023-03-30T17:11:52.813Z,100617.66
2023-03-30T17:14:23.338Z,100630.38
2023-03-30T17:16:51.516Z,100648.81
2023-03-30T17:19:19.461Z,100644.44
2023-03-30T17:21:47.539Z,100627.38
2023-03-30T17:24:16.996Z,100646.72
2023-03-30T17:26:46.362Z,100629.88
2023-03-30T17:29:14.239Z,100640.69
2023-03-30T17:31:45.834Z,100621.94
2023-03-30T17:34:15.007Z,100637.31
2023-03-30T17:36:43.438Z,100555.91
2023-03-30T17:39:13.919Z,100638.09
2023-03-30T17:41:42.418Z,100639.88
2023-03-30T17:44:10.323Z,100639.97
2023-03-30T17:46:38.224Z,100638.78
2023-03-30T17:49:17.123Z,100562.16
2023-03-30T17:51:44.975Z,100634.53
2023-03-30T17:54:12.913Z,100643.16
2023-03-30T17:56:41.212Z,100638.78
2023-03-30T17:59:11.304Z,100637.00
2023-03-30T18:01:39.333Z,100636.22
2023-03-30T18:04:16.440Z,100639.69
2023-03-30T18:06:44.456Z,100643.06
2023-03-30T18:09:16.213Z,100648.22
2023-03-30T18:11:44.194Z,100646.53
2023-03-30T18:14:12.429Z,100639.59
2023-03-30T18:16:43.800Z,100605.66
2023-03-30T18:19:13.674Z,100643.06
2023-03-30T18:21:43.137Z,100639.47
2023-03-30T18:24:10.998Z,100640.56
2023-03-30T18:26:41.011Z,100573.84
2023-03-30T18:29:20.314Z,100543.69
2023-03-30T18:31:49.509Z,100639.09
2023-03-30T18:34:19.672Z,100637.41
2023-03-30T18:36:47.608Z,100632.16
2023-03-30T18:39:19.816Z,100633.72
2023-03-30T18:41:47.760Z,100589.91
2023-03-30T18:44:15.681Z,100630.94
2023-03-30T18:46:44.571Z,100591.59
2023-03-30T18:49:15.143Z,100632.75
2023-03-30T18:51:44.525Z,100626.69
2023-03-30T18:54:12.471Z,100631.75
2023-03-30T18:56:40.485Z,100632.75
2023-03-30T18:59:10.664Z,100638.00
2023-03-30T19:01:41.441Z,100632.94
2023-03-30T19:04:09.477Z,100629.56
2023-03-30T19:06:37.705Z,100579.00
2023-03-30T19:09:07.090Z,100621.03
2023-03-30T19:11:35.072Z,100624.41
2023-03-30T19:14:04.624Z,100612.31
2023-03-30T19:16:32.525Z,100471.16
2023-03-30T19:19:00.676Z,100611.53
2023-03-30T19:21:28.884Z,100447.59
2023-03-30T19:23:56.754Z,100560.78
2023-03-30T19:26:28.335Z,100603.88
2023-03-30T19:28:56.209Z,100593.38
2023-03-30T19:31:24.232Z,100598.53
2023-03-30T19:33:52.387Z,100591.59
2023-03-30T19:36:24.696Z,100591.69
2023-03-30T19:38:53.042Z,100589.00
2023-03-30T19:41:21.204Z,100586.44
2023-03-30T19:43:52.925Z,100583.16
2023-03-30T19:46:22.061Z,100573.84
2023-03-30T19:48:50.110Z,100579.00
2023-03-30T19:51:19.265Z,100437.78
2023-03-30T19:53:48.974Z,100573.63
2023-03-30T19:56:16.906Z,100489.91
2023-03-30T19:58:44.955Z,100574.53
2023-03-30T20:01:14.583Z,100571.06
2023-03-30T20:03:42.615Z,100535.47
2023-03-30T20:06:12.746Z,100534.78
2023-03-30T20:08:43.399Z,100531.31
2023-03-30T20:11:12.534Z,100560.56
2023-03-30T20:13:45.713Z,100532.00
2023-03-30T20:16:22.424Z,100468.00
2023-03-30T20:18:52.172Z,100530.22
2023-03-30T20:21:21.788Z,100526.66
2023-03-30T20:23:50.229Z,100514.19
2023-03-30T20:26:19.581Z,100550.13
2023-03-30T20:28:48.084Z,100548.44
2023-03-30T20:31:17.808Z,100546.66
2023-03-30T20:33:46.103Z,100542.41
2023-03-30T20:36:14.393Z,100538.94
2023-03-30T20:38:45.907Z,100536.16
2023-03-30T20:41:14.386Z,100386.97
2023-03-30T20:43:56.496Z,100403.13
2023-03-30T20:46:35.161Z,100534.38
2023-03-30T20:49:03.932Z,100531.59
2023-03-30T20:51:33.543Z,100534.28
2023-03-30T20:54:01.719Z,100532.28
2023-03-30T20:56:29.684Z,100530.59
2023-03-30T20:58:59.963Z,100529.03
2023-03-30T21:01:30.485Z,100522.97
2023-03-30T21:04:00.177Z,100517.81
2023-03-30T21:06:30.114Z,100526.34
2023-03-30T21:09:00.431Z,100233.75
2023-03-30T21:11:31.441Z,100516.81
2023-03-30T21:13:59.519Z,100515.16
2023-03-30T21:16:27.596Z,100506.41
2023-03-30T21:18:59.713Z,100509.09
2023-03-30T21:21:27.915Z,100492.16
2023-03-30T21:23:57.505Z,100362.13
2023-03-30T21:26:26.590Z,100471.06
2023-03-30T21:28:54.901Z,100498.59
2023-03-30T21:31:23.037Z,100402.22
2023-03-30T21:33:51.180Z,100499.38
2023-03-30T21:36:20.712Z,100501.16
2023-03-30T21:38:48.778Z,100494.13
2023-03-30T21:41:18.613Z,100493.25
2023-03-30T21:43:49.456Z,100449.69
2023-03-30T21:46:19.454Z,100499.38
2023-03-30T21:48:50.492Z,100492.53
2023-03-30T21:51:23.045Z,100487.38
2023-03-30T21:53:52.354Z,100463.44
2023-03-30T21:56:22.614Z,100488.19
2023-03-30T21:58:50.980Z,100390.94
2023-03-30T22:01:20.770Z,100404.50
2023-03-30T22:03:48.733Z,100487.19
2023-03-30T22:06:22.336Z,100450.66
2023-03-30T22:08:52.082Z,100476.09
2023-03-30T22:11:22.151Z,100483.03
2023-03-30T22:13:57.331Z,100477.88
2023-03-30T22:16:31.622Z,100444.31
2023-03-30T22:18:59.873Z,100471.72
2023-03-30T22:21:34.497Z,100445.13
2023-03-30T22:24:06.048Z,100464.78
2023-03-30T22:26:35.682Z,100468.16
2023-03-30T22:29:03.639Z,100468.16
2023-03-30T22:31:31.557Z,100420.34
2023-03-30T22:33:59.695Z,100461.22
2023-03-30T22:36:30.089Z,100427.78
2023-03-30T22:38:59.841Z,100455.03
2023-03-30T22:41:29.608Z,100451.53
2023-03-30T22:43:59.338Z,100434.72
2023-03-30T22:46:28.162Z,100380.53
2023-03-30T22:48:56.812Z,100438.75
2023-03-30T22:51:26.225Z,100356.19
2023-03-30T22:53:56.317Z,100419.34
2023-03-30T22:56:25.933Z,100426.66
2023-03-30T22:58:55.455Z,100390.72
2023-03-30T23:01:23.787Z,100430.75
2023-03-30T23:03:53.464Z,100246.44
2023-03-30T23:06:21.789Z,100424.88
2023-03-30T23:08:49.628Z,100405.00
2023-03-30T23:11:21.907Z,100416.97
2023-03-30T23:13:50.053Z,100384.19
2023-03-30T23:16:19.399Z,100408.25
2023-03-30T23:18:47.519Z,100409.13
2023-03-30T23:21:15.399Z,100282.63
2023-03-30T23:23:44.005Z,100213.19
2023-03-30T23:26:13.252Z,100401.13
2023-03-30T23:28:43.575Z,100400.22
2023-03-30T23:31:13.247Z,100392.31
2023-03-30T23:33:43.236Z,100270.25
2023-03-30T23:36:13.645Z,100400.81
2023-03-30T23:38:41.955Z,100387.03
2023-03-30T23:41:13.321Z,100305.50
2023-03-30T23:43:41.419Z,100391.50
2023-03-30T23:46:10.505Z,100368.16
2023-03-30T23:48:40.521Z,100394.88
2023-03-30T23:51:10.232Z,100412.13
2023-03-30T23:53:40.375Z,100374.88
2023-03-30T23:56:13.112Z,100385.38
2023-03-30T23:58:46.685Z,100384.56
